Time;durP1;ratioP1;P1;durP2;ratioP2;P2;SDS_P1;SDS_P2;PMS_P1;PMS_P2;Temp;Humidity;BMP_temperature;BMP_pressure;BME280_temperature;BME280_humidity;BME280_pressure;Samples;Min_cycle;Max_cycle;Signal;HPM_P1;HPM_P2
2022/05/08 00:02:02;;;;;;;7.38;5.82;;;;;;;14.03;60.77;99483.97;2618179;31;20479;-66
2022/05/08 00:04:32;;;;;;;7.93;5.57;;;;;;;14.04;60.21;99483.78;2617356;54;20027;-66
2022/05/08 00:07:02;;;;;;;8.13;5.70;;;;;;;13.94;60.74;99480.66;2617417;54;20049;-67
2022/05/08 00:09:35;;;;;;;8.90;6.38;;;;;;;13.98;60.18;99479.25;2617423;54;20023;-67
2022/05/08 00:12:05;;;;;;;6.68;5.95;;;;;;;13.91;60.86;99475.72;2616998;54;20061;-66
2022/05/08 00:14:35;;;;;;;10.90;6.15;;;;;;;13.92;60.97;99472.06;2617631;39;20419;-66
2022/05/08 00:17:05;;;;;;;7.25;5.88;;;;;;;13.92;60.87;99468.56;2616512;47;20051;-66
2022/05/08 00:19:34;;;;;;;7.65;6.28;;;;;;;13.98;60.87;99465.94;2617386;54;20602;-67
2022/05/08 00:22:04;;;;;;;6.40;5.60;;;;;;;13.94;61.14;99466.56;2617662;54;20539;-66
2022/05/08 00:24:56;;;;;;;8.10;5.90;;;;;;;13.75;61.10;99473.41;2616806;47;20146;-66
2022/05/08 00:27:26;;;;;;;11.82;6.45;;;;;;;13.58;61.67;99460.44;2617213;54;20046;-66
2022/05/08 00:29:56;;;;;;;7.90;6.35;;;;;;;13.71;61.82;99458.88;2617374;54;20046;-67
2022/05/08 00:32:26;;;;;;;7.00;5.95;;;;;;;13.78;61.49;99454.41;2617867;54;20045;-67
2022/05/08 00:34:58;;;;;;;7.10;6.40;;;;;;;13.79;61.33;99462.19;2617498;47;20063;-66
2022/05/08 00:37:28;;;;;;;10.73;5.85;;;;;;;13.79;61.35;99456.88;2619148;39;20442;-67
2022/05/08 00:40:00;;;;;;;7.47;5.55;;;;;;;13.81;61.58;99456.69;2617562;47;20527;-66
2022/05/08 00:42:30;;;;;;;7.47;6.60;;;;;;;13.82;61.34;99458.31;2617439;51;20026;-65
2022/05/08 00:45:00;;;;;;;7.00;6.30;;;;;;;13.80;61.49;99453.22;2618129;54;20294;-66
2022/05/08 00:47:30;;;;;;;6.78;5.40;;;;;;;13.79;61.48;99454.22;2617840;54;20034;-65
2022/05/08 00:50:00;;;;;;;13.32;6.07;;;;;;;13.78;61.05;99449.09;2617618;47;20535;-66
2022/05/08 00:52:32;;;;;;;7.63;6.25;;;;;;;13.76;61.60;99441.34;2617464;47;20576;-66
2022/05/08 00:55:04;;;;;;;10.70;6.20;;;;;;;13.77;61.67;99439.50;2619014;39;20406;-66
2022/05/08 00:57:35;;;;;;;7.20;6.13;;;;;;;13.62;61.78;99445.75;2617746;54;20038;-67
2022/05/08 01:00:10;;;;;;;16.08;6.45;;;;;;;13.61;61.92;99449.44;2618000;47;20031;-66
2022/05/08 01:02:40;;;;;;;6.20;5.60;;;;;;;13.57;61.42;99440.22;2621062;47;20031;-67
2022/05/08 01:05:11;;;;;;;6.72;5.88;;;;;;;13.56;61.84;99438.56;2622573;54;20054;-66
2022/05/08 01:07:40;;;;;;;10.55;6.57;;;;;;;13.55;61.79;99433.44;2618045;54;20645;-67
2022/05/08 01:10:13;;;;;;;9.98;6.70;;;;;;;13.36;61.89;99438.47;2618228;54;20038;-66
2022/05/08 01:12:44;;;;;;;8.07;7.20;;;;;;;13.26;62.85;99443.28;2617451;51;20039;-66
2022/05/08 01:15:18;;;;;;;8.07;6.20;;;;;;;13.33;62.42;99443.34;2618005;54;20110;-67
2022/05/08 01:17:52;;;;;;;7.93;7.07;;;;;;;13.24;62.79;99433.88;2618045;39;20402;-66
2022/05/08 01:20:22;;;;;;;7.18;6.30;;;;;;;13.12;62.41;99444.19;2617394;51;20042;-66
2022/05/08 01:22:54;;;;;;;6.95;6.25;;;;;;;12.99;63.28;99441.44;2617521;54;20539;-67
2022/05/08 01:25:25;;;;;;;7.07;6.38;;;;;;;12.83;63.71;99440.69;2618138;54;20046;-66
2022/05/08 01:27:55;;;;;;;7.15;6.53;;;;;;;12.67;64.34;99446.28;2617034;51;20081;-66
2022/05/08 01:30:25;;;;;;;7.75;6.22;;;;;;;12.58;64.53;99439.47;2617451;47;20034;-66
2022/05/08 01:32:57;;;;;;;10.27;6.63;;;;;;;12.62;64.95;99436.22;2617939;54;20027;-66
2022/05/08 01:35:27;;;;;;;31.70;7.07;;;;;;;12.62;64.95;99436.22;2618109;54;20593;-66
2022/05/08 01:37:59;;;;;;;7.60;6.78;;;;;;;12.67;64.67;99433.00;2617924;54;20057;-66
2022/05/08 01:40:30;;;;;;;7.85;7.05;;;;;;;12.64;65.19;99436.03;2617982;54;20586;-67
2022/05/08 01:43:02;;;;;;;7.47;6.45;;;;;;;12.69;65.48;99435.47;2617494;47;20055;-66
2022/05/08 01:45:32;;;;;;;9.55;7.15;;;;;;;12.65;65.12;99440.31;2617092;54;20037;-66
2022/05/08 01:50:44;;;;;;;9.70;7.15;;;;;;;12.56;64.79;99436.16;2619967;54;20039;-66
2022/05/08 01:53:17;;;;;;;7.47;6.63;;;;;;;12.43;65.75;99436.84;2621733;54;20034;-67
2022/05/08 01:55:49;;;;;;;7.97;7.13;;;;;;;12.47;66.00;99435.47;2622165;54;20046;-67
2022/05/08 01:58:19;;;;;;;6.93;6.20;;;;;;;12.56;65.89;99436.97;2624444;39;20430;-66
2022/05/08 02:00:49;;;;;;;7.53;6.82;;;;;;;12.53;65.25;99442.69;2621965;54;20046;-66
2022/05/08 02:03:21;;;;;;;8.88;7.63;;;;;;;12.35;65.61;99444.94;2621657;54;20031;-66
2022/05/08 02:05:51;;;;;;;7.85;7.00;;;;;;;12.24;66.07;99442.78;2622248;54;20051;-66
2022/05/08 02:08:23;;;;;;;7.35;6.57;;;;;;;12.35;66.51;99445.75;2622252;54;20038;-66
2022/05/08 02:10:56;;;;;;;8.30;7.20;;;;;;;12.36;66.37;99438.63;2621909;54;20027;-66
2022/05/08 02:13:26;;;;;;;7.47;6.70;;;;;;;12.22;66.29;99444.81;2622057;54;20034;-66
2022/05/08 02:15:58;;;;;;;8.45;7.65;;;;;;;12.10;66.32;99455.88;2621163;54;20030;-66
2022/05/08 02:18:28;;;;;;;7.80;7.05;;;;;;;12.03;66.99;99452.31;2619111;46;20057;-67
2022/05/08 02:20:57;;;;;;;7.97;6.90;;;;;;;12.01;66.77;99451.72;2618565;54;20137;-66
2022/05/08 02:23:29;;;;;;;7.05;6.45;;;;;;;11.99;67.27;99453.72;2621715;54;20035;-67
2022/05/08 02:25:59;;;;;;;7.88;7.15;;;;;;;12.09;67.09;99451.59;2621861;54;20034;-66
2022/05/08 02:28:29;;;;;;;7.85;6.53;;;;;;;12.03;67.03;99452.31;2621038;54;20039;-66
2022/05/08 02:30:58;;;;;;;7.03;6.32;;;;;;;12.15;67.42;99450.03;2621045;54;20031;-66
2022/05/08 02:33:29;;;;;;;7.97;6.78;;;;;;;12.14;66.62;99443.91;2621542;54;20030;-66
2022/05/08 02:35:59;;;;;;;8.35;7.40;;;;;;;12.07;66.77;99448.28;2622482;54;20026;-67
2022/05/08 02:38:31;;;;;;;8.27;7.47;;;;;;;11.92;67.02;99450.19;2618442;54;20083;-66
2022/05/08 02:41:01;;;;;;;8.90;7.75;;;;;;;11.80;67.64;99449.78;2618438;39;20699;-66
2022/05/08 02:43:31;;;;;;;8.60;7.35;;;;;;;11.75;67.71;99444.19;2618127;39;20438;-67
2022/05/08 02:46:02;;;;;;;8.60;7.78;;;;;;;11.72;67.98;99449.06;2618270;39;20447;-67
2022/05/08 02:48:32;;;;;;;7.82;7.13;;;;;;;11.73;68.39;99454.19;2617695;54;20031;-67
2022/05/08 02:51:05;;;;;;;8.40;7.45;;;;;;;11.75;68.09;99457.44;2617203;47;20122;-67
2022/05/08 02:53:38;;;;;;;8.52;7.18;;;;;;;11.71;67.63;99447.41;2618507;54;20037;-67
2022/05/08 02:58:50;;;;;;;7.35;6.65;;;;;;;11.51;68.52;99445.34;2617656;54;20038;-67
2022/05/08 03:01:19;;;;;;;10.23;7.18;;;;;;;11.43;68.46;99447.22;2617708;54;20550;-67
2022/05/08 03:03:49;;;;;;;15.02;7.97;;;;;;;11.37;68.75;99446.97;2617193;47;20150;-67
2022/05/08 03:06:19;;;;;;;8.05;7.25;;;;;;;11.36;68.90;99444.50;2617958;54;20057;-67
2022/05/08 03:08:54;;;;;;;7.82;7.10;;;;;;;11.40;69.10;99443.13;2617664;54;20034;-67
2022/05/08 03:11:29;;;;;;;8.27;7.47;;;;;;;11.42;68.86;99449.06;2618012;54;20034;-67
2022/05/08 03:14:00;;;;;;;7.85;7.07;;;;;;;11.35;68.66;99448.16;2620763;54;20565;-67
2022/05/08 03:16:30;;;;;;;9.38;8.48;;;;;;;11.31;68.79;99457.47;2622598;54;20048;-67
2022/05/08 03:19:00;;;;;;;7.28;6.57;;;;;;;11.33;69.26;99453.63;2618198;54;20034;-67
2022/05/08 03:21:30;;;;;;;7.50;6.65;;;;;;;11.39;69.66;99452.91;2618198;54;20030;-67
2022/05/08 03:24:02;;;;;;;9.15;7.35;;;;;;;11.35;69.07;99456.09;2618037;54;20050;-67
2022/05/08 03:26:32;;;;;;;8.73;7.82;;;;;;;11.24;69.10;99451.25;2618100;54;20034;-67
2022/05/08 03:29:02;;;;;;;9.93;8.30;;;;;;;11.37;69.12;99460.19;2618042;54;20077;-67
2022/05/08 03:31:33;;;;;;;7.88;7.07;;;;;;;11.39;69.09;99462.69;2617458;47;20047;-67
2022/05/08 03:34:03;;;;;;;8.25;7.50;;;;;;;11.28;69.28;99460.47;2617757;54;20038;-67
2022/05/08 03:36:33;;;;;;;8.00;7.20;;;;;;;11.25;69.33;99453.72;2618248;54;20034;-67
2022/05/08 03:39:05;;;;;;;8.15;7.38;;;;;;;11.24;69.48;99465.31;2617442;54;20081;-67
2022/05/08 03:41:35;;;;;;;9.40;8.05;;;;;;;11.24;69.11;99467.94;2617658;54;20065;-66
2022/05/08 03:44:05;;;;;;;8.07;7.25;;;;;;;11.20;69.38;99458.72;2617626;54;20022;-67
2022/05/08 03:46:36;;;;;;;9.68;7.00;;;;;;;11.31;69.27;99453.00;2617974;54;20150;-67
2022/05/08 03:49:06;;;;;;;8.80;7.80;;;;;;;11.37;69.29;99462.03;2617360;54;20061;-67
2022/05/08 03:51:35;;;;;;;8.52;7.72;;;;;;;11.39;69.00;99458.22;2617537;54;20031;-67
2022/05/08 03:54:09;;;;;;;7.82;7.03;;;;;;;11.30;68.85;99467.22;2618109;54;20034;-67
2022/05/08 03:56:39;;;;;;;8.82;7.93;;;;;;;11.15;69.10;99467.22;2617129;54;20045;-65
2022/05/08 03:59:09;;;;;;;8.15;7.45;;;;;;;11.18;68.95;99467.84;2617344;54;20522;-66
2022/05/08 04:01:39;;;;;;;8.30;7.50;;;;;;;10.97;69.07;99473.81;2617643;54;20034;-66
2022/05/08 04:04:11;;;;;;;9.35;8.32;;;;;;;10.97;69.25;99471.16;2617703;54;20034;-66
2022/05/08 04:06:41;;;;;;;9.15;8.00;;;;;;;10.90;70.01;99468.44;2617501;54;20037;-66
2022/05/08 04:09:14;;;;;;;10.35;7.90;;;;;;;11.02;69.53;99480.22;2618103;54;20031;-66
2022/05/08 04:11:43;;;;;;;8.38;7.57;;;;;;;11.06;69.64;99476.22;2618471;54;20026;-66
2022/05/08 04:14:13;;;;;;;10.75;7.63;;;;;;;11.07;69.32;99477.88;2617798;54;20034;-66
2022/05/08 04:16:43;;;;;;;9.10;8.18;;;;;;;11.06;69.07;99473.59;2618526;47;20038;-62
2022/05/08 04:19:12;;;;;;;11.48;7.97;;;;;;;11.02;69.29;99472.31;2623583;54;20031;-64
2022/05/08 04:21:42;;;;;;;9.25;8.35;;;;;;;11.00;69.54;99471.63;2623343;54;20041;-65
2022/05/08 04:24:18;;;;;;;8.57;7.80;;;;;;;11.03;69.97;99470.47;2623723;54;20042;-64
2022/05/08 04:26:57;;;;;;;9.30;8.40;;;;;;;11.05;69.80;99477.22;2623784;54;20030;-64
2022/05/08 04:29:27;;;;;;;8.45;7.45;;;;;;;11.08;69.84;99483.97;2624659;54;20043;-61
2022/05/08 04:31:57;;;;;;;9.55;8.60;;;;;;;11.09;69.70;99480.31;2624504;39;20430;-64
2022/05/08 04:34:26;;;;;;;10.30;8.40;;;;;;;11.09;69.65;99477.69;2624161;54;20038;-64
2022/05/08 04:36:56;;;;;;;8.32;7.25;;;;;;;11.07;69.88;99483.16;2623655;54;20038;-63
2022/05/08 04:39:28;;;;;;;10.07;8.18;;;;;;;11.12;69.76;99490.56;2621616;54;20030;-63
2022/05/08 04:41:59;;;;;;;8.50;7.70;;;;;;;11.08;69.55;99495.38;2619287;39;20418;-63
2022/05/08 04:44:28;;;;;;;8.35;7.50;;;;;;;11.09;69.73;99488.25;2619006;54;20022;-64
2022/05/08 04:46:58;;;;;;;8.52;7.72;;;;;;;11.15;69.75;99488.38;2618424;54;20030;-63
2022/05/08 04:49:29;;;;;;;7.90;7.05;;;;;;;11.17;70.01;99496.13;2618458;54;20050;-63
2022/05/08 04:51:58;;;;;;;8.43;7.57;;;;;;;11.24;69.52;99489.13;2618510;54;20030;-62
2022/05/08 04:54:31;;;;;;;8.90;7.28;;;;;;;11.33;69.48;99489.88;2618865;39;20414;-63
2022/05/08 04:57:02;;;;;;;8.07;6.88;;;;;;;11.37;69.39;99499.09;2618252;54;20026;-63
2022/05/08 04:59:33;;;;;;;9.27;8.38;;;;;;;11.50;68.93;99504.56;2618258;54;20097;-64
2022/05/08 05:02:03;;;;;;;8.82;8.00;;;;;;;11.58;68.74;99506.31;2618982;39;20430;-65
2022/05/08 05:04:33;;;;;;;11.13;9.60;;;;;;;11.66;68.39;99504.41;2618167;54;20041;-63
2022/05/08 05:07:03;;;;;;;7.78;7.10;;;;;;;11.69;68.15;99503.22;2617974;54;20037;-60
2022/05/08 05:09:35;;;;;;;12.35;10.15;;;;;;;11.72;67.95;99510.81;2618661;39;20471;-64
2022/05/08 05:12:05;;;;;;;8.88;8.02;;;;;;;11.73;68.11;99503.69;2617818;47;20026;-62
2022/05/08 05:14:35;;;;;;;8.80;7.90;;;;;;;11.78;68.08;99512.72;2618352;54;20554;-64
2022/05/08 05:17:05;;;;;;;9.65;8.75;;;;;;;11.89;67.97;99514.94;2617454;47;20023;-63
2022/05/08 05:19:35;;;;;;;8.45;7.60;;;;;;;12.00;67.42;99512.81;2618400;39;20513;-63
2022/05/08 05:22:05;;;;;;;8.32;7.53;;;;;;;12.07;67.51;99521.69;2619167;39;20438;-61
2022/05/08 05:24:38;;;;;;;8.30;7.57;;;;;;;12.18;67.58;99523.06;2619503;39;20419;-63
2022/05/08 05:27:08;;;;;;;8.07;7.38;;;;;;;12.19;67.42;99525.50;2618257;54;20037;-63
2022/05/08 05:29:37;;;;;;;9.23;8.32;;;;;;;12.28;67.04;99518.25;2617678;47;20034;-62
2022/05/08 05:32:08;;;;;;;9.77;8.52;;;;;;;12.25;66.76;99527.44;2617604;54;20561;-63
2022/05/08 05:34:37;;;;;;;9.32;8.43;;;;;;;12.30;67.19;99517.09;2618190;54;20550;-63
2022/05/08 05:37:07;;;;;;;9.27;8.38;;;;;;;12.32;66.88;99522.19;2618385;39;20434;-63
2022/05/08 05:39:39;;;;;;;9.82;7.65;;;;;;;12.30;67.09;99522.38;2618548;54;20034;-63
2022/05/08 05:42:09;;;;;;;9.63;8.02;;;;;;;12.48;67.13;99529.09;2618295;54;20038;-63
2022/05/08 05:44:40;;;;;;;9.55;8.05;;;;;;;12.58;66.75;99524.34;2617989;54;20034;-63
2022/05/08 05:49:52;;;;;;;10.32;8.27;;;;;;;12.86;66.43;99527.88;2617520;47;20052;-62
2022/05/08 05:52:22;;;;;;;8.85;7.93;;;;;;;12.93;65.67;99525.28;2617615;47;20037;-64
2022/05/08 05:54:54;;;;;;;9.30;8.40;;;;;;;12.93;65.82;99527.13;2618155;54;20038;-64
2022/05/08 05:57:24;;;;;;;19.17;15.98;;;;;;;13.01;65.64;99532.28;2618397;54;20030;-62
2022/05/08 05:59:54;;;;;;;10.20;9.20;;;;;;;13.12;65.98;99526.47;2617542;47;20038;-63
2022/05/08 06:02:23;;;;;;;9.35;8.05;;;;;;;13.27;65.33;99535.22;2618420;54;20038;-64
2022/05/08 06:04:53;;;;;;;8.93;8.02;;;;;;;13.36;65.38;99526.09;2618190;54;20041;-62
2022/05/08 06:07:24;;;;;;;10.68;9.57;;;;;;;13.56;65.20;99533.38;2617338;47;20106;-62
2022/05/08 06:09:57;;;;;;;11.32;9.20;;;;;;;13.60;64.03;99539.97;2617653;54;20026;-63
2022/05/08 06:12:27;;;;;;;9.88;8.88;;;;;;;13.56;64.23;99534.22;2618229;54;20023;-62
2022/05/08 06:14:57;;;;;;;10.10;9.10;;;;;;;13.63;64.29;99542.19;2618031;54;20019;-63
2022/05/08 06:17:26;;;;;;;11.18;8.38;;;;;;;13.72;64.12;99545.56;2618105;54;20027;-63
2022/05/08 06:19:56;;;;;;;10.38;9.25;;;;;;;13.90;64.21;99537.06;2618020;54;20068;-62
2022/05/08 06:22:26;;;;;;;11.57;8.82;;;;;;;14.03;63.82;99545.91;2618185;54;20057;-63
2022/05/08 06:24:58;;;;;;;11.45;10.35;;;;;;;14.13;62.99;99551.72;2618398;54;20554;-63
2022/05/08 06:27:28;;;;;;;10.95;9.90;;;;;;;14.16;63.04;99553.13;2618119;54;20291;-64
2022/05/08 06:29:59;;;;;;;12.05;9.65;;;;;;;14.23;63.34;99550.53;2617700;54;20069;-63
2022/05/08 06:32:29;;;;;;;9.98;8.98;;;;;;;14.37;63.42;99557.56;2618229;54;20026;-63
2022/05/08 06:35:17;;;;;;;10.43;9.02;;;;;;;14.60;62.93;99557.25;2618311;54;20030;-64
2022/05/08 06:37:47;;;;;;;10.70;9.60;;;;;;;14.77;62.62;99552.38;2618069;54;20030;-65
2022/05/08 06:40:19;;;;;;;10.13;9.13;;;;;;;14.82;62.21;99556.09;2618399;54;20046;-63
2022/05/08 06:42:49;;;;;;;10.95;9.85;;;;;;;14.90;62.13;99549.75;2618240;54;20557;-64
2022/05/08 06:45:24;;;;;;;12.32;10.15;;;;;;;15.02;62.39;99557.94;2618259;47;20027;-64
2022/05/08 06:47:55;;;;;;;10.57;9.48;;;;;;;15.12;61.77;99553.03;2618213;31;20553;-64
2022/05/08 06:50:24;;;;;;;12.65;11.38;;;;;;;15.25;61.79;99552.22;2618454;54;20065;-64
2022/05/08 06:52:54;;;;;;;10.85;9.77;;;;;;;15.31;61.42;99556.75;2618555;54;20093;-64
2022/05/08 06:55:26;;;;;;;10.60;9.60;;;;;;;15.36;61.81;99554.28;2620560;54;20034;-65
2022/05/08 06:57:56;;;;;;;16.50;13.45;;;;;;;15.40;61.66;99552.03;2620579;54;20074;-64
2022/05/08 07:03:08;;;;;;;11.80;10.68;;;;;;;15.63;60.94;99554.25;2620542;54;20038;-64
2022/05/08 07:05:40;;;;;;;11.48;10.30;;;;;;;15.79;60.54;99559.19;2619456;54;20026;-64
2022/05/08 07:08:10;;;;;;;10.50;9.38;;;;;;;15.91;60.24;99554.84;2620832;54;20032;-64
2022/05/08 07:10:42;;;;;;;9.70;8.80;;;;;;;16.00;60.14;99556.28;2619386;47;20034;-64
2022/05/08 07:13:12;;;;;;;12.15;8.90;;;;;;;16.08;59.35;99557.88;2618419;54;20034;-64
2022/05/08 07:15:41;;;;;;;10.73;9.73;;;;;;;16.12;59.05;99552.94;2618835;54;20031;-63
2022/05/08 07:18:29;;;;;;;10.52;9.38;;;;;;;16.06;59.69;99552.78;2618535;54;20035;-64
2022/05/08 07:20:59;;;;;;;10.85;9.57;;;;;;;16.11;59.98;99549.47;2618473;54;20031;-64
2022/05/08 07:23:29;;;;;;;9.50;8.52;;;;;;;16.15;59.58;99545.34;2618718;54;20038;-64
2022/05/08 07:26:01;;;;;;;9.43;7.97;;;;;;;16.16;59.60;99551.50;2618881;39;20458;-64
2022/05/08 07:28:31;;;;;;;10.18;8.10;;;;;;;16.32;59.02;99553.69;2618246;54;20027;-62
2022/05/08 07:31:04;;;;;;;10.25;8.30;;;;;;;16.45;58.58;99555.50;2618312;54;20041;-62
2022/05/08 07:33:34;;;;;;;9.95;8.75;;;;;;;16.52;58.58;99558.94;2618307;54;20058;-64
2022/05/08 07:36:14;;;;;;;12.10;8.55;;;;;;;16.59;58.00;99559.75;2618208;54;20035;-63
2022/05/08 07:38:45;;;;;;;10.65;8.18;;;;;;;16.63;58.47;99554.81;2618183;54;20038;-62
2022/05/08 07:41:18;;;;;;;9.70;8.25;;;;;;;16.74;57.65;99552.31;2618315;54;20045;-61
2022/05/08 07:43:48;;;;;;;12.52;8.18;;;;;;;16.76;57.83;99560.09;2617989;47;20041;-62
2022/05/08 07:46:18;;;;;;;9.48;7.57;;;;;;;16.78;57.88;99558.03;2619062;54;20041;-65
2022/05/08 07:48:49;;;;;;;7.88;7.07;;;;;;;16.78;57.91;99556.19;2618776;54;20023;-65
2022/05/08 07:51:18;;;;;;;9.60;7.60;;;;;;;16.85;57.15;99561.47;2618983;52;20045;-64
2022/05/08 07:53:48;;;;;;;8.88;7.78;;;;;;;16.78;57.62;99560.72;2619190;54;20154;-65
2022/05/08 07:56:20;;;;;;;8.90;7.35;;;;;;;16.78;58.41;99561.53;2619176;54;20046;-62
2022/05/08 07:58:50;;;;;;;11.88;8.40;;;;;;;17.04;57.75;99565.06;2619191;54;20031;-62
2022/05/08 08:01:19;;;;;;;13.25;9.10;;;;;;;17.14;56.84;99562.72;2618805;54;20042;-62
2022/05/08 08:04:10;;;;;;;8.13;6.82;;;;;;;17.29;56.23;99563.22;2619159;54;20038;-62
2022/05/08 08:06:40;;;;;;;9.52;7.70;;;;;;;17.37;56.38;99564.00;2619005;39;20402;-63
2022/05/08 08:09:10;;;;;;;8.50;6.57;;;;;;;17.50;55.90;99567.38;2619276;39;20407;-65
2022/05/08 08:11:43;;;;;;;8.93;6.97;;;;;;;17.40;55.71;99566.25;2619073;54;20038;-64
2022/05/08 08:14:12;;;;;;;7.78;6.97;;;;;;;17.54;55.27;99562.41;2618949;54;20027;-66
2022/05/08 08:17:02;;;;;;;9.38;7.47;;;;;;;17.56;55.51;99571.84;2619038;54;20541;-65
2022/05/08 08:19:32;;;;;;;9.50;7.60;;;;;;;17.63;54.74;99565.59;2619283;54;20037;-63
2022/05/08 08:22:02;;;;;;;6.88;6.07;;;;;;;17.73;53.37;99565.94;2618990;54;20034;-65
2022/05/08 08:24:32;;;;;;;7.03;6.32;;;;;;;17.85;53.66;99574.09;2618665;47;20029;-64
2022/05/08 08:27:04;;;;;;;7.03;5.72;;;;;;;17.90;53.13;99571.56;2618997;54;20041;-64
2022/05/08 08:29:34;;;;;;;6.97;6.27;;;;;;;17.94;52.54;99570.91;2618958;54;20038;-65
2022/05/08 08:32:06;;;;;;;8.93;6.00;;;;;;;18.00;53.24;99566.50;2618891;54;20791;-65
2022/05/08 08:34:35;;;;;;;6.93;5.82;;;;;;;18.05;52.92;99569.34;2619096;54;20046;-65
2022/05/08 08:37:05;;;;;;;6.30;5.70;;;;;;;18.10;53.03;99568.69;2618721;54;20057;-65
2022/05/08 08:39:35;;;;;;;9.43;5.93;;;;;;;18.28;51.31;99571.34;2619123;54;20031;-62
2022/05/08 08:42:24;;;;;;;12.98;8.15;;;;;;;18.40;51.08;99558.84;2619020;54;20030;-63
2022/05/08 08:47:56;;;;;;;16.77;8.95;;;;;;;18.54;51.33;99572.91;2619226;39;20426;-63
2022/05/08 08:50:31;;;;;;;11.32;9.02;;;;;;;18.57;51.12;99569.75;2618714;54;20071;-63
2022/05/08 08:53:03;;;;;;;6.40;5.70;;;;;;;18.65;50.79;99574.78;2618609;54;20030;-63
2022/05/08 08:55:34;;;;;;;6.60;5.82;;;;;;;18.61;50.44;99573.59;2618695;54;20286;-63
2022/05/08 08:58:07;;;;;;;9.52;7.00;;;;;;;18.72;50.49;99577.41;2618420;54;20037;-66
2022/05/08 09:00:37;;;;;;;6.78;6.18;;;;;;;18.76;50.07;99578.59;2618808;54;20034;-65
2022/05/08 09:03:07;;;;;;;6.05;5.40;;;;;;;18.79;50.04;99573.59;2618679;54;20137;-66
2022/05/08 09:05:37;;;;;;;8.65;6.30;;;;;;;18.93;49.93;99573.41;2618858;54;20038;-65
2022/05/08 09:08:08;;;;;;;6.95;5.35;;;;;;;19.07;49.06;99568.69;2618517;54;20035;-65
2022/05/08 09:10:44;;;;;;;7.68;5.35;;;;;;;19.24;48.21;99575.03;2618925;54;20031;-64
2022/05/08 09:13:18;;;;;;;5.97;5.15;;;;;;;19.23;47.46;99568.84;2621223;54;20034;-64
2022/05/08 09:15:49;;;;;;;6.68;5.18;;;;;;;19.29;47.74;99572.47;2620889;47;20026;-64
2022/05/08 09:18:19;;;;;;;6.35;5.20;;;;;;;19.29;47.99;99581.31;2621342;54;20555;-64
2022/05/08 09:20:51;;;;;;;6.15;5.53;;;;;;;19.36;47.75;99572.38;2621386;54;20626;-64
2022/05/08 09:23:21;;;;;;;6.22;5.47;;;;;;;19.41;47.62;99570.63;2621939;54;20030;-65
2022/05/08 09:25:54;;;;;;;8.55;7.35;;;;;;;19.49;46.94;99572.94;2621771;54;20041;-64
2022/05/08 09:28:42;;;;;;;;;;;;;;;19.53;47.09;99568.75;2622856;54;20036;-63
2022/05/08 09:31:14;;;;;;;6.07;5.03;;;;;;;19.50;47.01;99569.22;2623274;47;19951;-64
2022/05/08 09:33:45;;;;;;;6.10;5.38;;;;;;;19.67;47.14;99561.31;2623915;54;20038;-65
2022/05/08 09:36:20;;;;;;;5.57;5.07;;;;;;;19.73;46.54;99564.94;2623765;54;20037;-65
2022/05/08 09:38:51;;;;;;;6.25;4.90;;;;;;;19.72;46.36;99564.16;2623073;54;20053;-64
2022/05/08 09:41:23;;;;;;;6.50;4.95;;;;;;;19.80;46.30;99562.97;2622287;54;20035;-63
2022/05/08 09:43:58;;;;;;;5.43;4.43;;;;;;;19.89;45.18;99564.25;2622390;54;20030;-65
2022/05/08 09:46:27;;;;;;;6.88;4.70;;;;;;;19.89;44.39;99558.06;2622564;47;20069;-63
2022/05/08 09:49:00;;;;;;;11.15;4.85;;;;;;;19.93;44.98;99559.22;2623797;54;20037;-66
2022/05/08 09:51:32;;;;;;;5.53;4.93;;;;;;;20.00;45.14;99563.44;2623291;54;20042;-65
2022/05/08 09:54:02;;;;;;;6.50;4.50;;;;;;;20.08;44.46;99558.72;2623562;39;20710;-64
2022/05/08 09:56:32;;;;;;;8.23;4.60;;;;;;;20.04;44.55;99559.22;2621045;54;20038;-65
2022/05/08 09:59:04;;;;;;;5.82;3.75;;;;;;;19.99;43.95;99566.31;2621976;54;20026;-65
2022/05/08 10:01:34;;;;;;;5.38;4.45;;;;;;;20.00;44.43;99552.69;2622575;54;20042;-65
2022/05/08 10:04:04;;;;;;;7.25;4.05;;;;;;;20.09;44.73;99550.47;2621990;54;20038;-63
2022/05/08 10:06:37;;;;;;;5.35;4.38;;;;;;;20.12;44.83;99554.50;2622098;54;20041;-64
2022/05/08 10:14:49;;;;;;;7.30;3.80;;;;;;;20.48;42.86;99551.53;2618750;54;20037;-62
2022/05/08 10:17:29;;;;;;;4.57;3.65;;;;;;;20.46;42.84;99544.75;2616665;47;20039;-65
2022/05/08 10:20:00;;;;;;;4.22;3.83;;;;;;;20.58;42.46;99547.44;2618890;54;20023;-64
2022/05/08 10:22:49;;;;;;;3.78;3.47;;;;;;;20.67;42.63;99540.59;2618783;54;20034;-64
2022/05/08 10:25:19;;;;;;;4.47;3.80;;;;;;;20.70;41.94;99543.63;2618713;54;20065;-65
2022/05/08 10:28:07;;;;;;;4.65;3.85;;;;;;;20.77;41.76;99546.16;2618209;54;20106;-66
2022/05/08 10:30:40;;;;;;;5.45;4.47;;;;;;;20.86;41.98;99546.56;2618385;54;20045;-65
2022/05/08 10:33:09;;;;;;;7.47;4.63;;;;;;;20.88;41.94;99547.97;2617958;54;20537;-65
2022/05/08 10:35:39;;;;;;;5.18;3.72;;;;;;;20.96;41.32;99536.84;2618544;54;20057;-64
2022/05/08 10:38:24;;;;;;;3.65;3.33;;;;;;;20.94;41.07;99551.56;2617591;47;20126;-67
2022/05/08 10:40:55;;;;;;;6.68;4.38;;;;;;;20.94;41.40;99546.19;2618458;54;20065;-65
2022/05/08 10:43:32;;;;;;;8.18;4.47;;;;;;;21.06;41.83;99538.88;2619193;54;20580;-68
2022/05/08 10:46:25;;;;;;;7.20;4.57;;;;;;;21.16;41.18;99538.25;2620115;54;20045;-62
2022/05/08 10:48:55;;;;;;;8.85;4.70;;;;;;;21.21;40.93;99544.50;2619097;54;20047;-63
2022/05/08 10:51:25;;;;;;;8.88;5.18;;;;;;;21.19;41.06;99543.13;2618751;54;20031;-62
2022/05/08 10:53:55;;;;;;;5.50;4.35;;;;;;;21.15;41.13;99542.81;2618607;54;20045;-65
2022/05/08 10:56:24;;;;;;;6.63;4.68;;;;;;;21.19;40.68;99533.19;2618399;54;20030;-65
2022/05/08 10:58:56;;;;;;;7.15;4.65;;;;;;;20.89;41.20;99528.09;2618100;54;20045;-65
2022/05/08 11:01:31;;;;;;;5.72;4.47;;;;;;;21.06;41.63;99530.81;2619307;54;20038;-63
2022/05/08 11:04:13;;;;;;;7.28;4.40;;;;;;;21.19;40.94;99519.75;2619919;54;20034;-63
2022/05/08 11:06:44;;;;;;;4.80;4.20;;;;;;;21.28;42.05;99520.16;2620616;39;20442;-63
2022/05/08 11:09:15;;;;;;;4.38;3.72;;;;;;;21.30;41.61;99518.03;2618798;47;20106;-64
2022/05/08 11:11:45;;;;;;;5.63;3.92;;;;;;;21.46;41.35;99516.41;2619363;54;20038;-65
2022/05/08 11:14:24;;;;;;;4.80;4.25;;;;;;;21.49;41.24;99534.75;2619347;39;20090;-61
2022/05/08 11:16:56;;;;;;;5.90;4.78;;;;;;;21.58;40.85;99524.38;2618035;54;20042;-63
2022/05/08 11:19:26;;;;;;;5.07;3.90;;;;;;;21.64;40.81;99524.22;2618365;54;20034;-64
2022/05/08 11:22:08;;;;;;;5.43;4.93;;;;;;;21.82;40.64;99525.00;2620788;54;20037;-62
2022/05/08 11:24:38;;;;;;;6.15;4.70;;;;;;;21.84;40.28;99522.84;2621899;54;20035;-64
2022/05/08 11:27:14;;;;;;;6.68;4.45;;;;;;;21.81;39.74;99518.81;2619045;39;20433;-63
2022/05/08 11:29:49;;;;;;;6.22;4.63;;;;;;;21.79;40.65;99520.91;2618415;54;20026;-64
2022/05/08 11:38:05;;;;;;;10.02;9.07;;;;;;;21.96;39.83;99510.09;2617567;54;20064;-63
2022/05/08 11:40:35;;;;;;;6.57;4.15;;;;;;;22.14;38.82;99507.16;2618555;54;20573;-64
2022/05/08 11:43:06;;;;;;;5.80;4.70;;;;;;;22.11;38.92;99506.78;2619077;54;20081;-65
2022/05/08 11:45:35;;;;;;;4.93;4.07;;;;;;;21.97;38.69;99504.50;2621111;54;20031;-65
2022/05/08 11:48:10;;;;;;;4.57;4.00;;;;;;;22.02;38.57;99501.03;2621266;54;20042;-64
2022/05/08 11:50:40;;;;;;;5.13;3.38;;;;;;;22.21;37.94;99506.97;2622034;47;20027;-63
2022/05/08 11:53:10;;;;;;;4.75;3.90;;;;;;;22.22;38.03;99495.94;2622302;54;20038;-63
2022/05/08 11:55:46;;;;;;;21.63;18.13;;;;;;;22.23;38.51;99494.03;2620830;47;20038;-64
2022/05/08 11:58:15;;;;;;;4.93;3.55;;;;;;;22.30;38.68;99491.16;2620847;54;20549;-64
2022/05/08 12:00:45;;;;;;;4.75;3.72;;;;;;;22.48;36.84;99488.13;2620832;39;20450;-64
2022/05/08 12:03:33;;;;;;;3.08;2.78;;;;;;;22.23;35.93;99483.28;2619649;39;20454;-63
2022/05/08 12:06:12;;;;;;;5.65;3.22;;;;;;;22.14;35.77;99479.41;2618884;54;20081;-63
2022/05/08 12:08:42;;;;;;;5.60;3.55;;;;;;;22.38;36.03;99485.34;2618288;39;20417;-63
2022/05/08 12:11:44;;;;;;;4.18;3.78;;;;;;;22.46;36.56;99479.50;2617960;54;20046;-63
2022/05/08 12:14:14;;;;;;;7.28;3.95;;;;;;;22.41;36.18;99482.09;2618065;54;20038;-65
2022/05/08 12:17:01;;;;;;;5.82;4.25;;;;;;;22.66;36.47;99476.19;2618290;54;20023;-63
2022/05/08 12:19:33;;;;;;;5.95;3.33;;;;;;;22.84;35.41;99473.09;2618888;39;20414;-63